createdAt,value
2022-08-07T00:03:11.994Z,14.20
2022-08-07T00:08:16.502Z,14.20
2022-08-07T00:13:23.881Z,14.10
2022-08-07T00:18:29.718Z,14.30
2022-08-07T00:23:34.043Z,14.00
2022-08-07T00:28:45.759Z,13.90
2022-08-07T00:33:57.850Z,13.60
2022-08-07T00:39:00.721Z,13.90
2022-08-07T00:44:03.676Z,13.70
2022-08-07T00:49:06.288Z,13.60
2022-08-07T00:54:12.261Z,13.50
2022-08-07T00:59:16.240Z,13.50
2022-08-07T01:04:21.788Z,13.30
2022-08-07T01:10:04.905Z,13.30
2022-08-07T01:14:50.426Z,13.10
2022-08-07T01:20:10.538Z,13.30
2022-08-07T01:25:53.500Z,13.10
2022-08-07T01:30:44.634Z,12.90
2022-08-07T01:35:53.828Z,13.00
2022-08-07T01:41:04.201Z,12.90
2022-08-07T01:46:12.145Z,13.10
2022-08-07T01:51:58.631Z,12.70
2022-08-07T01:56:56.458Z,12.80
2022-08-07T02:02:07.208Z,12.60
2022-08-07T02:07:15.240Z,12.40
2022-08-07T02:12:22.214Z,12.40
2022-08-07T02:17:36.104Z,12.20
2022-08-07T02:22:43.669Z,12.50
2022-08-07T02:27:52.317Z,12.30
2022-08-07T02:33:00.972Z,12.30
2022-08-07T02:38:14.155Z,12.50
2022-08-07T02:43:19.126Z,12.40
2022-08-07T02:48:22.544Z,12.00
2022-08-07T02:53:34.103Z,12.10
2022-08-07T02:58:47.023Z,12.00
2022-08-07T03:03:52.098Z,12.10
2022-08-07T03:09:05.566Z,12.00
2022-08-07T03:14:09.278Z,12.10
2022-08-07T03:19:14.168Z,12.00
2022-08-07T03:24:19.246Z,12.00
2022-08-07T03:29:38.625Z,11.80
2022-08-07T03:35:01.134Z,11.70
2022-08-07T03:40:15.494Z,11.50
2022-08-07T03:45:30.598Z,11.70
2022-08-07T03:50:43.104Z,11.80
2022-08-07T03:56:04.430Z,11.80
2022-08-07T04:01:13.898Z,11.80
2022-08-07T04:06:37.099Z,11.60
2022-08-07T04:12:25.244Z,11.90
2022-08-07T04:17:21.281Z,12.00
2022-08-07T04:22:29.146Z,12.20
2022-08-07T04:27:44.259Z,12.20
2022-08-07T04:32:58.069Z,12.40
2022-08-07T04:38:07.762Z,12.50
2022-08-07T04:43:19.437Z,12.50
2022-08-07T04:48:52.880Z,12.80
2022-08-07T04:54:17.963Z,13.10
2022-08-07T05:00:10.782Z,13.10
2022-08-07T05:05:52.982Z,13.30
2022-08-07T05:11:19.346Z,13.60
2022-08-07T05:16:24.284Z,13.90
2022-08-07T05:21:59.445Z,14.20
2022-08-07T05:26:57.314Z,14.40
2022-08-07T05:32:03.437Z,14.70
2022-08-07T05:37:08.641Z,14.90
2022-08-07T05:42:34.550Z,15.30
2022-08-07T05:48:01.539Z,15.50
2022-08-07T05:53:06.866Z,15.70
2022-08-07T05:58:36.389Z,15.90
2022-08-07T06:03:57.042Z,16.10
2022-08-07T06:09:06.206Z,16.10
2022-08-07T06:14:21.458Z,16.30
2022-08-07T06:19:52.412Z,16.50
2022-08-07T06:25:01.390Z,16.60
2022-08-07T06:30:06.320Z,16.80
2022-08-07T06:35:38.887Z,16.90
2022-08-07T06:40:52.998Z,17.00
2022-08-07T06:46:00.816Z,17.30
2022-08-07T06:51:09.479Z,17.40
2022-08-07T06:56:15.947Z,17.60
2022-08-07T07:01:22.275Z,17.70
2022-08-07T07:06:26.774Z,17.90
2022-08-07T07:12:08.960Z,17.90
2022-08-07T07:16:58.756Z,18.20
2022-08-07T07:22:11.976Z,18.40
2022-08-07T07:27:35.767Z,18.50
2022-08-07T07:32:55.331Z,18.60
2022-08-07T07:38:02.423Z,18.80
2022-08-07T07:43:14.995Z,18.90
2022-08-07T07:48:35.223Z,19.10
2022-08-07T07:53:52.222Z,19.50
2022-08-07T07:58:57.556Z,19.90
2022-08-07T08:04:10.736Z,19.90
2022-08-07T08:09:16.876Z,19.90
2022-08-07T08:14:26.275Z,19.90
2022-08-07T08:20:19.384Z,20.30
2022-08-07T08:25:24.699Z,20.80
2022-08-07T08:30:42.633Z,21.30
2022-08-07T08:35:56.031Z,21.20
2022-08-07T08:41:08.377Z,21.60
2022-08-07T08:46:38.236Z,21.60
2022-08-07T08:52:13.909Z,21.40
2022-08-07T08:57:30.384Z,21.40
2022-08-07T09:02:39.350Z,21.40
2022-08-07T09:08:11.529Z,21.40
2022-08-07T09:13:36.928Z,21.70
2022-08-07T09:18:52.991Z,21.70
2022-08-07T09:24:32.668Z,21.80
2022-08-07T09:30:05.815Z,21.90
2022-08-07T09:36:00.843Z,22.10
2022-08-07T09:41:17.826Z,22.30
2022-08-07T09:47:55.118Z,22.50
2022-08-07T09:52:33.553Z,22.50
2022-08-07T09:58:12.408Z,22.90
2022-08-07T10:04:03.336Z,23.80
2022-08-07T10:09:11.379Z,24.20
2022-08-07T10:14:43.259Z,24.90
2022-08-07T10:20:21.847Z,25.20
2022-08-07T10:25:48.062Z,25.50
2022-08-07T10:31:31.472Z,25.10
2022-08-07T10:37:12.694Z,24.60
2022-08-07T10:42:21.295Z,24.30
2022-08-07T10:47:53.279Z,23.90
2022-08-07T10:53:12.885Z,23.70
2022-08-07T10:59:01.296Z,23.80
2022-08-07T11:04:34.508Z,24.70
2022-08-07T11:10:08.995Z,26.20
2022-08-07T11:15:18.102Z,27.60
2022-08-07T11:20:35.623Z,27.70
2022-08-07T11:25:50.023Z,27.20
2022-08-07T11:31:13.300Z,27.60
2022-08-07T11:36:38.291Z,27.60
2022-08-07T11:42:01.824Z,27.60
2022-08-07T11:48:05.984Z,27.30
2022-08-07T11:53:37.105Z,26.80
2022-08-07T11:58:57.093Z,26.50
2022-08-07T12:04:41.602Z,26.30
2022-08-07T12:09:55.436Z,26.20
2022-08-07T12:15:08.153Z,26.90
2022-08-07T12:20:30.683Z,27.90
2022-08-07T12:26:03.310Z,28.70
2022-08-07T12:31:27.110Z,29.40
2022-08-07T12:36:52.166Z,30.40
2022-08-07T12:41:55.599Z,31.50
2022-08-07T12:47:21.806Z,31.90
2022-08-07T12:52:57.029Z,31.30
2022-08-07T12:58:02.613Z,30.80
2022-08-07T13:04:02.240Z,31.20
2022-08-07T13:10:20.026Z,30.00
2022-08-07T13:15:04.060Z,29.10
2022-08-07T13:20:18.974Z,28.60
2022-08-07T13:25:35.177Z,28.40
2022-08-07T13:30:48.687Z,28.30
2022-08-07T13:36:01.337Z,29.10
2022-08-07T13:41:29.271Z,32.40
2022-08-07T13:46:38.822Z,34.90
2022-08-07T13:52:25.920Z,36.30
2022-08-07T13:57:22.441Z,37.30
2022-08-07T14:02:39.593Z,38.40
2022-08-07T14:07:59.710Z,39.00
2022-08-07T14:13:05.831Z,40.10
2022-08-07T14:18:29.251Z,41.00
2022-08-07T14:24:00.004Z,40.60
2022-08-07T14:29:05.979Z,38.40
2022-08-07T14:34:20.355Z,36.00
2022-08-07T14:40:17.892Z,33.70
2022-08-07T14:44:53.710Z,32.20
2022-08-07T14:49:59.373Z,31.90
2022-08-07T14:55:03.970Z,31.30
2022-08-07T15:00:09.138Z,30.50
2022-08-07T15:05:25.599Z,30.20
2022-08-07T15:10:30.052Z,30.10
2022-08-07T15:15:56.876Z,33.00
2022-08-07T15:21:08.219Z,36.30
2022-08-07T15:26:20.848Z,37.80
2022-08-07T15:37:03.231Z,39.00
2022-08-07T15:42:43.839Z,40.30
2022-08-07T15:48:01.920Z,39.00
2022-08-07T15:53:11.559Z,39.30
2022-08-07T15:58:20.778Z,39.70
2022-08-07T16:03:47.143Z,40.20
2022-08-07T16:08:51.791Z,36.50
2022-08-07T16:14:03.128Z,33.50
2022-08-07T16:19:42.692Z,32.00
2022-08-07T16:24:59.701Z,30.40
2022-08-07T16:30:31.667Z,29.40
2022-08-07T16:35:51.971Z,28.60
2022-08-07T16:41:54.070Z,27.80
2022-08-07T16:47:17.865Z,27.30
2022-08-07T16:52:51.237Z,26.90
2022-08-07T16:58:03.900Z,26.60
2022-08-07T17:03:17.825Z,26.30
2022-08-07T17:09:09.513Z,26.60
2022-08-07T17:14:18.570Z,29.40
2022-08-07T17:20:02.055Z,31.80
2022-08-07T17:25:51.106Z,32.90
2022-08-07T17:31:16.559Z,30.90
2022-08-07T17:36:29.046Z,28.20
2022-08-07T17:42:06.716Z,26.50
2022-08-07T17:47:37.965Z,25.70
2022-08-07T17:52:51.963Z,25.20
2022-08-07T17:58:08.930Z,24.60
2022-08-07T18:03:18.891Z,24.20
2022-08-07T18:09:01.046Z,23.90
2022-08-07T18:14:31.382Z,23.50
2022-08-07T18:21:04.099Z,22.90
2022-08-07T18:25:23.894Z,22.40
2022-08-07T18:30:45.410Z,22.10
2022-08-07T18:36:10.922Z,21.90
2022-08-07T18:41:44.660Z,21.50
2022-08-07T18:47:00.227Z,21.40
2022-08-07T18:52:37.823Z,21.00
2022-08-07T18:57:44.050Z,20.90
2022-08-07T19:03:37.831Z,20.80
2022-08-07T19:08:58.833Z,20.40
2022-08-07T19:14:16.887Z,20.10
2022-08-07T19:19:38.626Z,20.00
2022-08-07T19:24:48.062Z,19.70
2022-08-07T19:30:57.947Z,19.50
2022-08-07T19:35:26.838Z,19.20
2022-08-07T19:40:37.327Z,19.20
2022-08-07T19:46:05.844Z,19.00
2022-08-07T19:51:19.486Z,18.80
2022-08-07T19:57:51.734Z,18.90
2022-08-07T20:01:57.835Z,18.80
2022-08-07T20:07:01.273Z,18.50
2022-08-07T20:12:31.252Z,18.50
2022-08-07T20:17:30.855Z,18.30
2022-08-07T20:22:38.014Z,18.20
2022-08-07T20:27:46.282Z,18.20
2022-08-07T20:32:53.919Z,18.10
2022-08-07T20:37:59.735Z,18.20
2022-08-07T20:43:14.824Z,18.00
2022-08-07T20:48:29.036Z,17.90
2022-08-07T20:54:02.909Z,17.50
2022-08-07T20:59:02.799Z,17.40
2022-08-07T21:04:22.181Z,17.20
2022-08-07T21:09:52.436Z,17.20
2022-08-07T21:15:08.015Z,17.30
2022-08-07T21:20:26.571Z,17.30
2022-08-07T21:25:56.725Z,17.20
2022-08-07T21:31:15.268Z,17.10
2022-08-07T21:36:41.217Z,16.80
2022-08-07T21:42:42.758Z,16.60
2022-08-07T21:48:28.588Z,16.60
2022-08-07T21:53:46.446Z,16.40
2022-08-07T21:59:21.694Z,16.30
2022-08-07T22:04:27.551Z,16.30
2022-08-07T22:09:53.815Z,16.20
2022-08-07T22:16:39.549Z,16.00
2022-08-07T22:20:39.242Z,15.80
2022-08-07T22:26:06.154Z,15.60
2022-08-07T22:31:45.514Z,15.70
2022-08-07T22:36:53.209Z,15.60
2022-08-07T22:42:19.278Z,15.40
2022-08-07T22:48:01.555Z,15.40
2022-08-07T22:54:04.992Z,15.20
2022-08-07T22:58:54.376Z,15.10
2022-08-07T23:04:03.440Z,15.20
2022-08-07T23:10:04.866Z,15.30
2022-08-07T23:16:04.280Z,15.30
2022-08-07T23:21:02.383Z,15.20
2022-08-07T23:26:19.143Z,15.00
2022-08-07T23:34:19.695Z,14.90
2022-08-07T23:38:01.458Z,14.90
2022-08-07T23:43:25.663Z,15.10
2022-08-07T23:49:05.133Z,15.00
2022-08-07T23:54:46.160Z,15.00
